createdAt,value
2019-03-28T00:00:11.420Z,100.00
2019-03-28T00:02:41.004Z,100.00
2019-03-28T00:05:10.730Z,100.00
2019-03-28T00:07:40.259Z,100.00
2019-03-28T00:10:10.350Z,100.00
2019-03-28T00:12:40.192Z,100.00
2019-03-28T00:15:10.085Z,100.00
2019-03-28T00:17:39.568Z,100.00
2019-03-28T00:20:10.075Z,100.00
2019-03-28T00:22:41.323Z,100.00
2019-03-28T00:25:12.995Z,100.00
2019-03-28T00:27:42.522Z,100.00
2019-03-28T00:30:12.169Z,100.00
2019-03-28T00:32:41.665Z,100.00
2019-03-28T00:35:11.543Z,100.00
2019-03-28T00:37:41.049Z,100.00
2019-03-28T00:40:10.861Z,100.00
2019-03-28T00:42:40.444Z,100.00
2019-03-28T00:45:10.285Z,100.00
2019-03-28T00:47:39.833Z,100.00
2019-03-28T00:50:09.876Z,100.00
2019-03-28T00:52:39.455Z,100.00
2019-03-28T00:55:09.454Z,100.00
2019-03-28T00:57:38.987Z,100.00
2019-03-28T01:00:09.041Z,100.00
2019-03-28T01:02:38.534Z,100.00
2019-03-28T01:05:08.295Z,100.00
2019-03-28T01:07:37.806Z,100.00
2019-03-28T01:10:07.848Z,100.00
2019-03-28T01:12:37.361Z,100.00
2019-03-28T01:15:09.439Z,100.00
2019-03-28T01:17:39.041Z,100.00
2019-03-28T01:20:09.225Z,100.00
2019-03-28T01:22:38.747Z,100.00
2019-03-28T01:25:08.580Z,100.00
2019-03-28T01:27:38.070Z,100.00
2019-03-28T01:30:09.063Z,100.00
2019-03-28T01:32:38.579Z,100.00
2019-03-28T01:35:08.322Z,100.00
2019-03-28T01:37:37.815Z,100.00
2019-03-28T01:40:08.245Z,100.00
2019-03-28T01:42:37.722Z,100.00
2019-03-28T01:45:08.478Z,100.00
2019-03-28T01:47:38.065Z,100.00
2019-03-28T01:50:08.488Z,100.00
2019-03-28T01:52:38.048Z,100.00
2019-03-28T01:55:08.675Z,100.00
2019-03-28T01:57:38.907Z,100.00
2019-03-28T02:00:12.318Z,100.00
2019-03-28T02:02:42.057Z,100.00
2019-03-28T02:05:11.821Z,100.00
2019-03-28T02:07:41.405Z,100.00
2019-03-28T02:10:11.252Z,100.00
2019-03-28T02:12:40.867Z,100.00
2019-03-28T02:15:11.116Z,100.00
2019-03-28T02:17:40.803Z,100.00
2019-03-28T02:20:11.625Z,100.00
2019-03-28T02:22:41.276Z,100.00
2019-03-28T02:25:11.140Z,100.00
2019-03-28T02:27:40.736Z,100.00
2019-03-28T02:30:10.944Z,100.00
2019-03-28T02:32:40.449Z,100.00
2019-03-28T02:35:10.273Z,100.00
2019-03-28T02:37:39.769Z,100.00
2019-03-28T02:40:09.516Z,100.00
2019-03-28T02:42:39.075Z,100.00
2019-03-28T02:45:09.323Z,100.00
2019-03-28T02:47:38.827Z,100.00
2019-03-28T02:50:08.658Z,100.00
2019-03-28T02:52:38.232Z,100.00
2019-03-28T02:55:08.528Z,100.00
2019-03-28T02:57:41.787Z,100.00
2019-03-28T03:00:10.426Z,100.00
2019-03-28T03:02:39.928Z,100.00
2019-03-28T03:05:10.248Z,100.00
2019-03-28T03:07:39.993Z,100.00
2019-03-28T03:10:09.827Z,100.00
2019-03-28T03:12:39.350Z,100.00
2019-03-28T03:15:10.165Z,100.00
2019-03-28T03:17:39.710Z,100.00
2019-03-28T03:20:10.036Z,100.00
2019-03-28T03:22:39.589Z,100.00
2019-03-28T03:25:09.928Z,100.00
2019-03-28T03:27:55.977Z,100.00
2019-03-28T03:30:12.943Z,100.00
2019-03-28T03:32:42.768Z,100.00
2019-03-28T03:35:12.820Z,100.00
2019-03-28T03:37:42.459Z,100.00
2019-03-28T03:40:12.377Z,100.00
2019-03-28T03:42:42.021Z,100.00
2019-03-28T03:45:11.750Z,100.00
2019-03-28T03:47:41.403Z,100.00
2019-03-28T03:50:12.688Z,100.00
2019-03-28T03:52:42.193Z,100.00
2019-03-28T03:55:11.749Z,100.00
2019-03-28T03:57:41.242Z,100.00
2019-03-28T04:00:11.196Z,100.00
2019-03-28T04:02:40.686Z,100.00
2019-03-28T04:05:10.339Z,100.00
2019-03-28T04:07:39.822Z,100.00
2019-03-28T04:10:09.587Z,100.00
2019-03-28T04:12:39.070Z,100.00
2019-03-28T04:15:08.819Z,100.00
2019-03-28T04:17:38.311Z,100.00
2019-03-28T04:20:08.546Z,100.00
2019-03-28T04:22:38.023Z,100.00
2019-03-28T04:25:07.849Z,100.00
2019-03-28T04:27:37.345Z,100.00
2019-03-28T04:30:08.918Z,100.00
2019-03-28T04:32:38.411Z,100.00
2019-03-28T04:35:08.261Z,100.00
2019-03-28T04:37:37.779Z,100.00
2019-03-28T04:40:09.181Z,100.00
2019-03-28T04:42:38.667Z,100.00
2019-03-28T04:45:09.094Z,100.00
2019-03-28T04:47:38.656Z,100.00
2019-03-28T04:50:08.667Z,100.00
2019-03-28T04:52:38.243Z,100.00
2019-03-28T04:55:08.366Z,100.00
2019-03-28T04:57:40.892Z,100.00
2019-03-28T05:00:11.072Z,100.00
2019-03-28T05:02:40.641Z,100.00
2019-03-28T05:05:10.486Z,99.92
2019-03-28T05:07:40.048Z,100.00
2019-03-28T05:10:11.051Z,100.00
2019-03-28T05:12:40.637Z,99.98
2019-03-28T05:15:11.247Z,99.98
2019-03-28T05:17:40.846Z,99.41
2019-03-28T05:20:13.248Z,99.31
2019-03-28T05:22:42.423Z,98.99
2019-03-28T05:25:12.071Z,99.17
2019-03-28T05:27:41.573Z,99.44
2019-03-28T05:30:12.676Z,99.23
2019-03-28T05:32:42.183Z,99.24
2019-03-28T05:35:12.630Z,99.29
2019-03-28T05:37:42.106Z,98.77
2019-03-28T05:40:11.858Z,98.77
2019-03-28T05:42:41.409Z,99.03
2019-03-28T05:45:11.908Z,100.00
2019-03-28T05:47:41.583Z,99.45
2019-03-28T05:50:11.394Z,99.24
2019-03-28T05:52:40.879Z,98.98
2019-03-28T05:55:10.649Z,99.24
2019-03-28T05:57:40.151Z,99.34
2019-03-28T06:00:10.384Z,98.49
2019-03-28T06:02:40.543Z,97.94
2019-03-28T06:05:10.142Z,97.59
2019-03-28T06:07:39.689Z,98.07
2019-03-28T06:10:10.365Z,97.99
2019-03-28T06:12:40.025Z,97.42
2019-03-28T06:15:10.059Z,97.09
2019-03-28T06:17:39.682Z,96.94
2019-03-28T06:20:10.816Z,96.92
2019-03-28T06:22:40.336Z,95.48
2019-03-28T06:25:10.060Z,97.65
2019-03-28T06:27:39.547Z,95.90
2019-03-28T06:30:11.239Z,95.69
2019-03-28T06:32:43.180Z,96.41
2019-03-28T06:35:12.043Z,95.06
2019-03-28T06:37:41.551Z,95.48
2019-03-28T06:40:11.286Z,94.15
2019-03-28T06:42:40.859Z,93.66
2019-03-28T06:45:10.825Z,94.36
2019-03-28T06:47:40.372Z,95.43
2019-03-28T06:50:10.490Z,95.02
2019-03-28T06:52:40.238Z,94.78
2019-03-28T06:55:10.290Z,95.21
2019-03-28T06:57:39.763Z,95.63
2019-03-28T07:00:11.388Z,94.56
2019-03-28T07:02:41.047Z,93.69
2019-03-28T07:05:11.467Z,94.47
2019-03-28T07:07:40.999Z,94.86
2019-03-28T07:10:11.419Z,92.87
2019-03-28T07:12:40.937Z,94.55
2019-03-28T07:15:11.262Z,93.11
2019-03-28T07:17:40.779Z,92.85
2019-03-28T07:20:11.987Z,92.09
2019-03-28T07:22:41.495Z,91.98
2019-03-28T07:25:11.168Z,92.77
2019-03-28T07:27:40.651Z,93.14
2019-03-28T07:30:13.078Z,90.93
2019-03-28T07:32:43.754Z,90.51
2019-03-28T07:35:13.709Z,89.54
2019-03-28T07:37:44.539Z,89.04
2019-03-28T07:40:15.784Z,89.12
2019-03-28T07:42:45.269Z,88.31
2019-03-28T07:45:15.218Z,87.68
2019-03-28T07:47:44.876Z,86.15
2019-03-28T07:53:16.032Z,85.65
2019-03-28T07:56:23.878Z,84.76
2019-03-28T07:59:12.740Z,84.68
2019-03-28T08:02:01.599Z,83.80
2019-03-28T08:04:43.093Z,83.55
2019-03-28T08:07:44.362Z,83.14
2019-03-28T08:10:22.575Z,83.64
2019-03-28T08:13:11.415Z,79.51
2019-03-28T08:16:00.265Z,79.35
2019-03-28T08:18:49.177Z,81.01
2019-03-28T08:21:38.036Z,83.49
2019-03-28T08:24:26.857Z,79.55
2019-03-28T08:27:15.702Z,78.81
2019-03-28T08:30:25.448Z,75.90
2019-03-28T08:33:14.301Z,77.40
2019-03-28T08:36:03.196Z,78.76
2019-03-28T08:38:52.205Z,77.67
2019-03-28T08:41:41.116Z,77.71
2019-03-28T08:44:29.949Z,77.22
2019-03-28T08:47:18.839Z,77.09
2019-03-28T08:53:36.046Z,72.55
2019-03-28T08:56:24.900Z,76.44
2019-03-28T08:59:13.804Z,78.50
2019-03-28T09:04:56.860Z,77.41
2019-03-28T09:07:45.707Z,78.54
2019-03-28T09:10:34.619Z,77.02
2019-03-28T09:13:23.467Z,76.59
2019-03-28T09:16:12.336Z,76.59
2019-03-28T09:19:01.162Z,77.32
2019-03-28T09:21:50.005Z,78.20
2019-03-28T09:24:38.837Z,77.51
2019-03-28T09:27:27.728Z,75.90
2019-03-28T09:30:48.177Z,77.80
2019-03-28T09:33:47.091Z,77.97
2019-03-28T09:36:16.604Z,77.56
2019-03-28T09:39:26.376Z,77.16
2019-03-28T09:42:15.207Z,77.68
2019-03-28T09:45:24.939Z,78.55
2019-03-28T09:48:13.802Z,77.21
2019-03-28T09:51:02.628Z,77.21
2019-03-28T09:53:51.486Z,77.79
2019-03-28T09:56:40.390Z,76.90
2019-03-28T09:59:29.252Z,76.39
2019-03-28T10:02:18.093Z,75.83
2019-03-28T10:05:00.566Z,74.81
2019-03-28T10:07:49.350Z,77.01
2019-03-28T10:10:38.205Z,77.31
2019-03-28T10:13:27.101Z,72.46
2019-03-28T10:16:16.053Z,72.52
2019-03-28T10:19:04.957Z,68.80
2019-03-28T10:21:53.834Z,68.48
2019-03-28T10:24:42.738Z,70.12
2019-03-28T10:27:31.590Z,72.11
2019-03-28T10:30:41.303Z,73.81
2019-03-28T10:33:30.146Z,70.90
2019-03-28T10:36:19.005Z,70.48
2019-03-28T10:42:23.575Z,67.45
2019-03-28T10:45:12.499Z,64.11
2019-03-28T10:48:01.309Z,64.88
2019-03-28T10:50:50.297Z,61.60
2019-03-28T10:53:39.146Z,66.74
2019-03-28T10:56:27.983Z,60.92
2019-03-28T10:59:23.567Z,62.47
2019-03-28T11:02:07.556Z,63.19
2019-03-28T11:04:49.219Z,61.33
2019-03-28T11:07:38.094Z,62.40
2019-03-28T11:10:30.371Z,62.76
2019-03-28T11:13:17.552Z,60.35
2019-03-28T11:16:06.380Z,59.71
2019-03-28T11:18:55.241Z,58.44
2019-03-28T11:21:44.086Z,57.71
2019-03-28T11:24:32.943Z,58.09
2019-03-28T11:27:21.824Z,62.08
2019-03-28T11:33:39.127Z,59.20
2019-03-28T11:36:28.029Z,57.57
2019-03-28T11:39:16.840Z,59.68
2019-03-28T11:42:05.769Z,58.35
2019-03-28T11:44:54.634Z,52.88
2019-03-28T11:47:43.453Z,54.17
2019-03-28T11:50:32.382Z,51.41
2019-03-28T11:53:21.213Z,51.52
2019-03-28T11:56:10.058Z,49.57
2019-03-28T11:58:58.959Z,54.58
2019-03-28T12:01:59.407Z,49.15
2019-03-28T12:04:31.598Z,49.30
2019-03-28T12:07:01.179Z,48.71
2019-03-28T12:09:50.011Z,51.58
2019-03-28T12:12:38.869Z,51.59
2019-03-28T12:15:27.694Z,50.53
2019-03-28T12:18:16.546Z,45.31
2019-03-28T12:21:05.380Z,46.88
2019-03-28T12:23:54.205Z,47.51
2019-03-28T12:26:43.131Z,50.52
2019-03-28T12:29:35.558Z,47.82
2019-03-28T12:32:22.612Z,46.63
2019-03-28T12:35:11.617Z,49.82
2019-03-28T12:38:00.438Z,50.75
2019-03-28T12:40:49.311Z,51.38
2019-03-28T12:43:38.160Z,49.72
2019-03-28T12:46:26.980Z,53.39
2019-03-28T12:49:15.843Z,52.40
2019-03-28T12:52:04.720Z,53.54
2019-03-28T12:54:54.698Z,49.59
2019-03-28T12:57:44.123Z,51.76
2019-03-28T13:00:52.373Z,52.88
2019-03-28T13:03:45.745Z,52.59
2019-03-28T13:06:24.944Z,52.99
2019-03-28T13:09:13.890Z,54.77
2019-03-28T13:12:02.730Z,51.77
2019-03-28T13:14:51.671Z,51.92
2019-03-28T13:17:40.577Z,49.47
2019-03-28T13:20:29.516Z,51.30
2019-03-28T13:23:18.357Z,51.09
2019-03-28T13:26:07.231Z,47.73
2019-03-28T13:28:56.203Z,46.04
2019-03-28T13:31:45.120Z,48.03
2019-03-28T13:34:33.956Z,46.41
2019-03-28T13:37:22.824Z,45.60
2019-03-28T13:40:11.791Z,46.09
2019-03-28T13:43:00.675Z,49.32
2019-03-28T13:45:49.525Z,47.51
2019-03-28T13:48:38.444Z,49.24
2019-03-28T13:51:27.284Z,47.96
2019-03-28T13:54:16.133Z,45.32
2019-03-28T13:57:04.973Z,49.28
2019-03-28T13:59:53.954Z,49.64
2019-03-28T14:02:54.856Z,48.65
2019-03-28T14:05:25.962Z,49.45
2019-03-28T14:08:14.823Z,48.44
2019-03-28T14:11:03.668Z,49.64
2019-03-28T14:13:52.565Z,49.91
2019-03-28T14:16:41.423Z,50.93
2019-03-28T14:19:30.256Z,48.90
2019-03-28T14:25:14.762Z,50.64
2019-03-28T14:28:03.668Z,51.64
2019-03-28T14:30:52.541Z,48.24
2019-03-28T14:33:41.452Z,51.51
2019-03-28T14:36:30.286Z,50.41
2019-03-28T14:39:19.117Z,50.70
2019-03-28T14:42:07.957Z,50.78
2019-03-28T14:44:56.836Z,52.62
2019-03-28T14:47:45.666Z,49.41
2019-03-28T14:53:49.967Z,52.97
2019-03-28T14:56:39.069Z,49.80
2019-03-28T15:02:56.177Z,51.58
2019-03-28T15:05:38.178Z,52.79
2019-03-28T15:08:27.017Z,52.19
2019-03-28T15:11:15.873Z,54.55
2019-03-28T15:14:04.759Z,53.15
2019-03-28T15:16:53.576Z,53.59
2019-03-28T15:19:42.454Z,55.22
2019-03-28T15:22:31.294Z,55.95
2019-03-28T15:25:20.224Z,56.91
2019-03-28T15:28:09.047Z,55.89
2019-03-28T15:30:57.892Z,56.51
2019-03-28T15:33:46.770Z,56.52
2019-03-28T15:36:35.630Z,56.83
2019-03-28T15:39:24.501Z,57.29
2019-03-28T15:42:13.342Z,57.93
2019-03-28T15:45:02.400Z,56.58
2019-03-28T15:47:52.164Z,59.53
2019-03-28T15:50:41.873Z,59.66
2019-03-28T15:53:30.710Z,59.16
2019-03-28T15:56:19.632Z,62.88
2019-03-28T15:59:08.544Z,63.74
2019-03-28T16:01:59.938Z,62.93
2019-03-28T16:04:48.047Z,62.60
2019-03-28T16:07:36.974Z,64.72
2019-03-28T16:10:25.785Z,61.59
2019-03-28T16:13:14.715Z,62.60
2019-03-28T16:16:03.613Z,64.17
2019-03-28T16:18:52.469Z,65.99
2019-03-28T16:21:41.311Z,65.75
2019-03-28T16:24:30.256Z,66.04
2019-03-28T16:27:19.107Z,67.07
2019-03-28T16:30:28.823Z,63.67
2019-03-28T16:33:17.673Z,64.73
2019-03-28T16:36:06.592Z,64.61
2019-03-28T16:38:55.450Z,65.03
2019-03-28T16:41:44.358Z,65.55
2019-03-28T16:44:33.204Z,64.06
2019-03-28T16:47:22.044Z,65.08
2019-03-28T16:50:11.062Z,63.75
2019-03-28T16:52:59.903Z,63.13
2019-03-28T16:55:48.797Z,63.02
2019-03-28T16:58:37.685Z,61.92
2019-03-28T17:01:26.620Z,61.69
2019-03-28T17:04:21.045Z,62.52
2019-03-28T17:07:00.590Z,62.80
2019-03-28T17:09:50.400Z,63.13
2019-03-28T17:12:31.916Z,62.67
2019-03-28T17:15:20.759Z,62.81
2019-03-28T17:18:09.668Z,62.78
2019-03-28T17:20:58.573Z,62.81
2019-03-28T17:23:47.433Z,62.78
2019-03-28T17:26:36.402Z,62.60
2019-03-28T17:29:25.286Z,63.15
2019-03-28T17:32:14.165Z,62.90
2019-03-28T17:35:03.785Z,63.37
2019-03-28T17:37:53.675Z,63.86
2019-03-28T17:40:42.579Z,63.60
2019-03-28T17:43:31.701Z,63.96
2019-03-28T17:46:20.559Z,64.21
2019-03-28T17:49:09.476Z,65.18
2019-03-28T17:51:58.331Z,65.72
2019-03-28T17:54:47.202Z,65.87
2019-03-28T17:57:36.057Z,66.70
2019-03-28T18:00:44.446Z,65.97
2019-03-28T18:03:33.298Z,65.82
2019-03-28T18:06:15.009Z,66.33
2019-03-28T18:12:19.112Z,67.07
2019-03-28T18:15:08.112Z,66.99
2019-03-28T18:17:56.945Z,66.87
2019-03-28T18:20:45.813Z,69.15
2019-03-28T18:23:34.638Z,67.66
2019-03-28T18:26:23.782Z,67.93
2019-03-28T18:29:12.657Z,67.36
2019-03-28T18:32:01.554Z,67.32
2019-03-28T18:35:04.612Z,67.61
2019-03-28T18:38:00.205Z,67.20
2019-03-28T18:40:49.301Z,67.80
2019-03-28T18:43:38.184Z,69.12
2019-03-28T18:46:27.121Z,69.38
2019-03-28T18:49:15.972Z,72.08
2019-03-28T18:52:07.393Z,70.22
2019-03-28T18:54:55.473Z,70.18
2019-03-28T18:57:44.375Z,69.39
2019-03-28T19:00:33.296Z,69.22
2019-03-28T19:03:22.259Z,69.37
2019-03-28T19:06:04.475Z,69.74
2019-03-28T19:08:53.816Z,70.60
2019-03-28T19:11:43.937Z,72.44
2019-03-28T19:14:32.794Z,70.89
2019-03-28T19:17:21.731Z,71.34
2019-03-28T19:20:10.774Z,72.59
2019-03-28T19:22:59.681Z,72.51
2019-03-28T19:25:48.542Z,73.22
2019-03-28T19:28:37.437Z,75.28
2019-03-28T19:31:26.308Z,76.04
2019-03-28T19:34:15.185Z,77.61
2019-03-28T19:37:04.091Z,79.26
2019-03-28T19:39:52.952Z,80.71
2019-03-28T19:42:41.810Z,82.34
2019-03-28T19:45:50.056Z,83.48
2019-03-28T19:48:38.992Z,85.12
2019-03-28T19:51:47.837Z,86.83
2019-03-28T19:54:37.675Z,87.93
2019-03-28T19:57:26.546Z,89.05
2019-03-28T20:00:15.534Z,89.30
2019-03-28T20:03:04.532Z,88.62
2019-03-28T20:05:53.443Z,89.95
2019-03-28T20:08:34.935Z,90.37
2019-03-28T20:11:23.917Z,90.42
2019-03-28T20:14:14.340Z,91.56
2019-03-28T20:17:03.231Z,91.97
2019-03-28T20:19:52.110Z,92.76
2019-03-28T20:22:40.984Z,93.37
2019-03-28T20:25:29.850Z,94.46
2019-03-28T20:28:18.790Z,94.95
2019-03-28T20:31:07.752Z,94.73
2019-03-28T20:33:56.608Z,95.35
2019-03-28T20:36:45.441Z,95.55
2019-03-28T20:39:34.384Z,94.91
2019-03-28T20:42:23.237Z,95.77
2019-03-28T20:48:27.226Z,96.41
2019-03-28T20:51:16.067Z,97.21
2019-03-28T20:54:07.755Z,96.58
2019-03-28T20:56:57.850Z,97.15
2019-03-28T20:59:46.837Z,97.52
2019-03-28T21:02:36.945Z,97.79
2019-03-28T21:05:25.774Z,97.54
2019-03-28T21:08:08.133Z,97.91
2019-03-28T21:10:56.982Z,98.52
2019-03-28T21:13:45.819Z,98.63
2019-03-28T21:16:34.661Z,98.66
2019-03-28T21:19:23.521Z,98.56
2019-03-28T21:22:12.368Z,98.72
2019-03-28T21:25:01.259Z,99.54
2019-03-28T21:27:50.208Z,100.00
2019-03-28T21:33:33.304Z,100.00
2019-03-28T21:36:29.719Z,100.00
2019-03-28T21:39:12.731Z,100.00
2019-03-28T21:42:01.583Z,100.00
2019-03-28T21:44:50.526Z,100.00
2019-03-28T21:47:39.362Z,100.00
2019-03-28T21:50:28.214Z,100.00
2019-03-28T21:53:19.800Z,100.00
2019-03-28T21:56:07.606Z,100.00
2019-03-28T21:58:56.892Z,100.00
2019-03-28T22:01:47.049Z,100.00
2019-03-28T22:04:35.923Z,100.00
2019-03-28T22:07:18.031Z,100.00
2019-03-28T22:10:27.755Z,100.00
2019-03-28T22:13:16.580Z,100.00
2019-03-28T22:16:07.688Z,100.00
2019-03-28T22:18:56.071Z,100.00
2019-03-28T22:21:44.928Z,100.00
2019-03-28T22:24:33.762Z,100.00
2019-03-28T22:27:22.637Z,100.00
2019-03-28T22:33:39.855Z,100.00
2019-03-28T22:36:28.673Z,100.00
2019-03-28T22:39:17.558Z,100.00
2019-03-28T22:42:06.401Z,100.00
2019-03-28T22:44:55.238Z,100.00
2019-03-28T22:47:24.761Z,100.00
2019-03-28T22:50:13.788Z,100.00
2019-03-28T22:53:02.633Z,100.00
2019-03-28T22:55:51.456Z,100.00
2019-03-28T22:58:40.323Z,100.00
2019-03-28T23:01:29.311Z,100.00
2019-03-28T23:04:37.319Z,100.00
2019-03-28T23:07:19.098Z,100.00
2019-03-28T23:10:27.970Z,100.00
2019-03-28T23:13:16.826Z,100.00
2019-03-28T23:16:24.913Z,100.00
2019-03-28T23:19:13.747Z,100.00
2019-03-28T23:22:02.604Z,100.00
2019-03-28T23:24:51.434Z,100.00
2019-03-28T23:27:40.295Z,100.00
2019-03-28T23:30:29.131Z,100.00
2019-03-28T23:33:17.988Z,100.00
2019-03-28T23:36:06.998Z,100.00
2019-03-28T23:38:57.388Z,100.00
2019-03-28T23:41:46.203Z,100.00
2019-03-28T23:44:35.044Z,100.00
2019-03-28T23:47:23.883Z,100.00
2019-03-28T23:50:12.794Z,100.00
2019-03-28T23:53:01.702Z,100.00
2019-03-28T23:55:50.544Z,100.00
2019-03-28T23:58:39.369Z,100.00
